Adairville, Kentucky
Current Conditions -  °F | °C
As of 5:53 PM on Friday 24 Oct 2014 (Local Time) from KBWG Reporting Station
Clear Clear  
Wind Chill: 64°   Ceiling: Unl
Heat Index: 64°   Visibility: 10mi
Dew Point: 46°   Wind: 0mph
Humidity: 52%   Direction: NA
Pressure: 30.07"   Gusts: NA
Location:  36.67°N, 86.85°W
Report Text: KBWG 242253Z AUTO 00000KT 10SM CLR 18/08 A3007 RMK AO2 SLP182 T01780078
Loading
Personal Weather Stations






























Interactive Weather Map
Tropical Storm Tracking
New forecast layout! Learn more

10-Day Weather Forecast

Advertisements
Track Severe Weather on mobile